METAR Data
IDs: Format: Raw Decoded Include TAF

Data at: 0122 UTC 20 Jul 2019

METAR for:PADU (Dutch Harbor/Madsen, AK, US)
Text:PADU 200056Z 24008KT 10SM FEW007 BKN022 13/08 A3041 RMK AO2 SLP300 T01280083
Temperature: 12.8°C ( 55°F)
Dewpoint: 8.3°C ( 47°F) [RH = 74%]
Pressure (altimeter):30.41 inches Hg (1029.9 mb) [Sea level pressure: 1030.0 mb]
Winds:from the WSW (240 degrees) at 9 MPH (8 knots; 4.1 m/s)
Visibility:10 or more sm (16+ km)
Ceiling:2200 feet AGL
Clouds: few clouds at 700 feet AGL, broken clouds at 2200 feet AGL
Text:PADU 192356Z 10006KT 10SM FEW005 BKN022 13/08 A3041 RMK AO2 SLP300 6//// T01330083 10139 20111 58000
Temperature: 13.3°C ( 56°F)
Dewpoint: 8.3°C ( 47°F) [RH = 72%]
Pressure (altimeter):30.41 inches Hg (1029.9 mb) [Sea level pressure: 1030.0 mb]
Winds:from the E (100 degrees) at 7 MPH (6 knots; 3.1 m/s)
Visibility:10 or more sm (16+ km)
Ceiling:2200 feet AGL
Clouds: few clouds at 500 feet AGL, broken clouds at 2200 feet AGL
Text:PADU 192256Z 00000KT 10SM FEW007 FEW013 BKN022 13/08 A3041 RMK AO2 SLP301 T01280083
Temperature: 12.8°C ( 55°F)
Dewpoint: 8.3°C ( 47°F) [RH = 74%]
Pressure (altimeter):30.41 inches Hg (1029.9 mb) [Sea level pressure: 1030.1 mb]
Winds:calm
Visibility:10 or more sm (16+ km)
Ceiling:2200 feet AGL
Clouds: few clouds at 700 feet AGL, few clouds at 1300 feet AGL, broken clouds at 2200 feet AGL
Text:PADU 192156Z VRB04KT 10SM FEW006 BKN022 12/08 A3041 RMK AO2 SLP301 T01220078
Temperature: 12.2°C ( 54°F)
Dewpoint: 7.8°C ( 46°F) [RH = 74%]
Pressure (altimeter):30.41 inches Hg (1029.9 mb) [Sea level pressure: 1030.1 mb]
Winds:variable direction winds at 5 MPH (4 knots; 2.1 m/s)
Visibility:10 or more sm (16+ km)
Ceiling:2200 feet AGL
Clouds: few clouds at 600 feet AGL, broken clouds at 2200 feet AGL
Text:PADU 192138Z VRB04KT 10SM FEW006 BKN022 12/07 A3041 RMK AO2
Temperature: 12.0°C ( 54°F)
Dewpoint: 7.0°C ( 45°F) [RH = 71%]
Pressure (altimeter):30.41 inches Hg (1029.9 mb)
Winds:variable direction winds at 5 MPH (4 knots; 2.1 m/s)
Visibility:10 or more sm (16+ km)
Ceiling:2200 feet AGL
Clouds: few clouds at 600 feet AGL, broken clouds at 2200 feet AGL
Text:PADU 192056Z 34010KT 10SM BKN022 BKN180 12/07 A3041 RMK AO2 SLP300 T01220072 51007
Temperature: 12.2°C ( 54°F)
Dewpoint: 7.2°C ( 45°F) [RH = 71%]
Pressure (altimeter):30.41 inches Hg (1029.9 mb) [Sea level pressure: 1030.0 mb]
Winds:from the NNW (340 degrees) at 12 MPH (10 knots; 5.1 m/s)
Visibility:10 or more sm (16+ km)
Ceiling:2200 feet AGL
Clouds: broken clouds at 2200 feet AGL, broken clouds at 18000 feet AGL
Text:PADU 192003Z 33008KT 10SM BKN022 BKN180 12/07 A3040 RMK AO2
Temperature: 12.0°C ( 54°F)
Dewpoint: 7.0°C ( 45°F) [RH = 71%]
Pressure (altimeter):30.40 inches Hg (1029.5 mb)
Winds:from the NNW (330 degrees) at 9 MPH (8 knots; 4.1 m/s)
Visibility:10 or more sm (16+ km)
Ceiling:2200 feet AGL
Clouds: broken clouds at 2200 feet AGL, broken clouds at 18000 feet AGL
Text:PADU 191956Z 31007KT 10SM SCT022 SCT180 12/07 A3040 RMK AO2 SLP298 T01220072
Temperature: 12.2°C ( 54°F)
Dewpoint: 7.2°C ( 45°F) [RH = 71%]
Pressure (altimeter):30.40 inches Hg (1029.5 mb) [Sea level pressure: 1029.8 mb]
Winds:from the NW (310 degrees) at 8 MPH (7 knots; 3.6 m/s)
Visibility:10 or more sm (16+ km)
Ceiling:at least 12,000 feet AGL
Clouds: scattered clouds at 2200 feet AGL, scattered clouds at 18000 feet AGL

TAF for:PADU (Dutch Harbor/Madsen, AK, US) issued at 2341 UTC 19 Jul 2019
Text:PADU 192341Z 2000/2024 VRB05KT P6SM FEW020 BKN025
Forecast period:0000 UTC 20 July 2019 to 0000 UTC 21 July 2019
Forecast type:FROM: standard forecast or significant change
Winds:variable direction winds at 6 MPH (5 knots; 2.6 m/s)
Visibility:6 or more sm (10+ km)
Ceiling:2500 feet AGL
Clouds: few clouds at 2000 feet AGL, broken clouds at 2500 feet AGL